Halsey, Nebraska
Current Conditions -  °F | °C
As of 5:15 AM on Thursday 18 Dec 2014 (Local Time) from KTIF Reporting Station
Overcast Overcast  
Wind Chill: 16°   Ceiling: 800
Heat Index: 25°   Visibility: 10mi
Dew Point: 23°   Wind: 8mph
Humidity: 94%   Direction: 240°WSW
Pressure: 30.06"   Gusts: NA
Location:  41.9°N, 100.27°W
Report Text: KTIF 181115Z AUTO 24007KT 10SM OVC008 M04/M05 A3006 RMK AO2 T10401048
Loading
Personal Weather Stations






























Interactive Weather Map New forecast layout! Learn more

10-Day Weather Forecast

Advertisements
Track Severe Weather on mobile